Shawinigan-Sud, Canada
Current Conditions -  °F | °C
As of 7:00 AM on Monday 20 Oct 2014 (Local Time) from CYRQ Reporting Station
Broken Clouds Broken Clouds  
Wind Chill: 30°   Ceiling: 20000
Heat Index: 34°   Visibility: 9mi
Dew Point: 25°   Wind: 5mph
Humidity: 70%   Direction: 270°W
Pressure: 29.95"   Gusts: NA
Location:  46.53°N, 72.75°W
Report Text: CYRQ 201100Z AUTO 27004KT 9SM SCT180 BKN200 01/M04 A2995 RMK SLP143
Loading
Personal Weather Stations






























Interactive Weather Map
Tropical Storm Tracking
New forecast layout! Learn more

10-Day Weather Forecast

Advertisements
Track Severe Weather on mobile